This is the latest recevied weather packets stored in our database for station/object KF4PPJ. If no packets are shown the sender has not sent any weather packets the latest 10 day(s).
| Time | Temp. | Humidity | Pressure | Rain* | Wind** | Luminosity | Snow |
|---|---|---|---|---|---|---|---|
| 1777750378 | 19.44° C | 64% | 1018.7 hPa | 0 mm | - | 691 W/m² | - |
| 1777750077 | 17.78° C | 69% | 1018.6 hPa | 0 mm | - | 675 W/m² | - |
| 1777749775 | 17.22° C | 71% | 1019 hPa | 0 mm | - | 689 W/m² | - |
| 1777749473 | 16.67° C | 72% | 1018.9 hPa | 0 mm | - | 711 W/m² | - |
| 1777749170 | 16.67° C | 73% | 1019 hPa | 0 mm | - | 660 W/m² | - |
| 1777748867 | 16.11° C | 74% | 1019.2 hPa | 0 mm | - | 617 W/m² | - |
| 1777748565 | 16.11° C | 74% | 1019.2 hPa | 0 mm | - | 615 W/m² | - |
| 1777748264 | 15.56° C | 74% | 1019.3 hPa | 0 mm | - | 581 W/m² | - |
| 1777747961 | 15.56° C | 74% | 1019.3 hPa | 0 mm | - | 487 W/m² | - |
| 1777747657 | 17.78° C | 70% | 1019.4 hPa | 0 mm | - | 399 W/m² | - |
| 1777747353 | 17.78° C | 67% | 1019.2 hPa | 0 mm | - | 428 W/m² | - |
| 1777747050 | 17.78° C | 67% | 1019.3 hPa | 0 mm | - | 502 W/m² | - |
| 1777746746 | 17.22° C | 70% | 1019.3 hPa | 0 mm | - | 652 W/m² | - |
| 1777746441 | 16.11° C | 74% | 1019.4 hPa | 0 mm | - | 667 W/m² | - |
| 1777746137 | 15° C | 77% | 1019.2 hPa | 0 mm | - | 390 W/m² | - |
| 1777745834 | 14.44° C | 78% | 1019.5 hPa | 0 mm | - | 315 W/m² | - |
| 1777745534 | 15.56° C | 75% | 1019.4 hPa | 0 mm | - | 264 W/m² | - |
| 1777745230 | 16.67° C | 70% | 1019.4 hPa | 0 mm | - | 289 W/m² | - |
| 1777744928 | 16.67° C | 71% | 1019.3 hPa | 0 mm | - | 239 W/m² | - |
| 1777744627 | 16.11° C | 72% | 1019.4 hPa | 0 mm | - | 314 W/m² | - |
| 1777744323 | 16.11° C | 72% | 1019.4 hPa | 0 mm | - | 328 W/m² | - |
| 1777744020 | 15.56° C | 73% | 1019.4 hPa | 0 mm | - | 244 W/m² | - |
| 1777743716 | 15.56° C | 72% | 1019.6 hPa | 0 mm | - | 195 W/m² | - |
| 1777743413 | 15.56° C | 72% | 1019.6 hPa | 0 mm | - | 279 W/m² | - |
| 1777743111 | 16.11° C | 72% | 1019.6 hPa | 0 mm | - | 210 W/m² | - |
* Rain latest hour (hover to see other rain measurements)
** Current wind speed in m/s (hover to see current wind gust speed)